sensor_id;sensor_type;location;lat;lon;timestamp;temperature;humidity
56172;DHT22;42052;41.634;-0.946;2022-10-16T00:01:15;26.00;51.80
56172;DHT22;42052;41.634;-0.946;2022-10-16T00:03:43;26.00;51.80
56172;DHT22;42052;41.634;-0.946;2022-10-16T00:06:10;26.00;51.90
56172;DHT22;42052;41.634;-0.946;2022-10-16T00:08:37;26.00;51.90
56172;DHT22;42052;41.634;-0.946;2022-10-16T00:13:32;26.00;52.10
56172;DHT22;42052;41.634;-0.946;2022-10-16T00:15:59;26.00;52.10
56172;DHT22;42052;41.634;-0.946;2022-10-16T00:18:26;26.00;52.10
56172;DHT22;42052;41.634;-0.946;2022-10-16T00:20:53;26.00;52.10
56172;DHT22;42052;41.634;-0.946;2022-10-16T00:23:19;26.00;52.30
56172;DHT22;42052;41.634;-0.946;2022-10-16T00:25:45;26.00;52.30
56172;DHT22;42052;41.634;-0.946;2022-10-16T00:28:10;26.00;52.20
56172;DHT22;42052;41.634;-0.946;2022-10-16T00:30:39;26.00;52.20
56172;DHT22;42052;41.634;-0.946;2022-10-16T00:33:05;26.00;52.10
56172;DHT22;42052;41.634;-0.946;2022-10-16T00:35:31;26.00;52.10
56172;DHT22;42052;41.634;-0.946;2022-10-16T00:37:57;26.00;52.20
56172;DHT22;42052;41.634;-0.946;2022-10-16T00:40:23;26.00;52.20
56172;DHT22;42052;41.634;-0.946;2022-10-16T00:42:49;26.00;52.20
56172;DHT22;42052;41.634;-0.946;2022-10-16T00:45:14;26.00;52.20
56172;DHT22;42052;41.634;-0.946;2022-10-16T00:47:45;25.90;52.20
56172;DHT22;42052;41.634;-0.946;2022-10-16T00:50:34;25.90;52.20
56172;DHT22;42052;41.634;-0.946;2022-10-16T00:53:01;25.90;52.20
56172;DHT22;42052;41.634;-0.946;2022-10-16T00:55:28;25.90;52.20
56172;DHT22;42052;41.634;-0.946;2022-10-16T00:57:56;26.00;52.30
56172;DHT22;42052;41.634;-0.946;2022-10-16T01:00:25;26.00;52.30
56172;DHT22;42052;41.634;-0.946;2022-10-16T01:03:01;26.00;52.30
56172;DHT22;42052;41.634;-0.946;2022-10-16T01:05:35;26.00;52.30
56172;DHT22;42052;41.634;-0.946;2022-10-16T01:08:12;26.00;52.20
56172;DHT22;42052;41.634;-0.946;2022-10-16T01:10:59;26.00;52.30
56172;DHT22;42052;41.634;-0.946;2022-10-16T01:13:27;25.90;52.20
56172;DHT22;42052;41.634;-0.946;2022-10-16T01:16:01;26.00;52.30
56172;DHT22;42052;41.634;-0.946;2022-10-16T01:18:39;26.00;52.30
56172;DHT22;42052;41.634;-0.946;2022-10-16T01:21:12;26.00;52.30
56172;DHT22;42052;41.634;-0.946;2022-10-16T01:31:45;26.00;52.30
56172;DHT22;42052;41.634;-0.946;2022-10-16T01:34:16;26.00;52.40
56172;DHT22;42052;41.634;-0.946;2022-10-16T01:36:56;26.00;52.40
56172;DHT22;42052;41.634;-0.946;2022-10-16T01:39:32;26.00;52.50
56172;DHT22;42052;41.634;-0.946;2022-10-16T01:42:06;26.00;52.40
56172;DHT22;42052;41.634;-0.946;2022-10-16T01:44:34;25.90;52.50
56172;DHT22;42052;41.634;-0.946;2022-10-16T01:47:02;25.90;52.40
56172;DHT22;42052;41.634;-0.946;2022-10-16T01:49:33;26.00;52.50
56172;DHT22;42052;41.634;-0.946;2022-10-16T01:52:02;26.00;52.50
56172;DHT22;42052;41.634;-0.946;2022-10-16T01:54:31;26.00;52.50
56172;DHT22;42052;41.634;-0.946;2022-10-16T01:56:59;26.00;52.50
56172;DHT22;42052;41.634;-0.946;2022-10-16T01:59:28;25.90;52.50
56172;DHT22;42052;41.634;-0.946;2022-10-16T02:02:00;25.90;52.60
56172;DHT22;42052;41.634;-0.946;2022-10-16T02:04:31;25.90;52.50
56172;DHT22;42052;41.634;-0.946;2022-10-16T02:06:58;25.90;52.50
56172;DHT22;42052;41.634;-0.946;2022-10-16T02:09:24;25.90;52.50
56172;DHT22;42052;41.634;-0.946;2022-10-16T02:11:52;25.90;52.50
56172;DHT22;42052;41.634;-0.946;2022-10-16T02:14:19;25.90;52.50
56172;DHT22;42052;41.634;-0.946;2022-10-16T02:16:46;25.90;52.50
56172;DHT22;42052;41.634;-0.946;2022-10-16T02:19:13;25.90;52.50
56172;DHT22;42052;41.634;-0.946;2022-10-16T02:21:44;25.90;52.50
56172;DHT22;42052;41.634;-0.946;2022-10-16T02:29:33;26.00;52.60
56172;DHT22;42052;41.634;-0.946;2022-10-16T02:32:05;25.90;52.50
56172;DHT22;42052;41.634;-0.946;2022-10-16T02:34:33;25.90;52.50
56172;DHT22;42052;41.634;-0.946;2022-10-16T02:37:01;25.90;52.50
56172;DHT22;42052;41.634;-0.946;2022-10-16T02:39:28;25.90;52.50
56172;DHT22;42052;41.634;-0.946;2022-10-16T02:41:55;25.90;52.50
56172;DHT22;42052;41.634;-0.946;2022-10-16T02:44:21;25.90;52.50
56172;DHT22;42052;41.634;-0.946;2022-10-16T02:46:47;25.90;52.50
56172;DHT22;42052;41.634;-0.946;2022-10-16T02:49:13;25.90;52.60
56172;DHT22;42052;41.634;-0.946;2022-10-16T02:51:39;25.90;52.50
56172;DHT22;42052;41.634;-0.946;2022-10-16T02:54:05;25.90;52.50
56172;DHT22;42052;41.634;-0.946;2022-10-16T02:56:31;25.90;52.60
56172;DHT22;42052;41.634;-0.946;2022-10-16T02:58:57;25.90;52.50
56172;DHT22;42052;41.634;-0.946;2022-10-16T03:01:23;25.90;52.50
56172;DHT22;42052;41.634;-0.946;2022-10-16T03:03:49;25.90;52.50
56172;DHT22;42052;41.634;-0.946;2022-10-16T03:06:15;25.90;52.60
56172;DHT22;42052;41.634;-0.946;2022-10-16T03:08:41;25.90;52.60
56172;DHT22;42052;41.634;-0.946;2022-10-16T03:11:07;25.90;52.50
56172;DHT22;42052;41.634;-0.946;2022-10-16T03:13:33;25.90;52.50
56172;DHT22;42052;41.634;-0.946;2022-10-16T03:15:59;25.90;52.50
56172;DHT22;42052;41.634;-0.946;2022-10-16T03:18:25;25.90;53.30
56172;DHT22;42052;41.634;-0.946;2022-10-16T03:20:50;25.90;52.60
56172;DHT22;42052;41.634;-0.946;2022-10-16T03:23:16;25.90;52.50
56172;DHT22;42052;41.634;-0.946;2022-10-16T03:25:42;25.90;52.50
56172;DHT22;42052;41.634;-0.946;2022-10-16T03:28:08;25.90;52.60
56172;DHT22;42052;41.634;-0.946;2022-10-16T03:30:35;25.90;52.50
56172;DHT22;42052;41.634;-0.946;2022-10-16T03:33:01;25.90;52.60
56172;DHT22;42052;41.634;-0.946;2022-10-16T03:35:27;25.90;52.50
56172;DHT22;42052;41.634;-0.946;2022-10-16T03:37:53;25.90;52.50
56172;DHT22;42052;41.634;-0.946;2022-10-16T03:40:19;25.90;52.50
56172;DHT22;42052;41.634;-0.946;2022-10-16T03:42:45;25.90;52.60
56172;DHT22;42052;41.634;-0.946;2022-10-16T03:45:11;25.90;52.60
56172;DHT22;42052;41.634;-0.946;2022-10-16T03:47:37;25.90;52.60
56172;DHT22;42052;41.634;-0.946;2022-10-16T03:50:04;25.90;52.60
56172;DHT22;42052;41.634;-0.946;2022-10-16T03:52:30;25.90;52.60
56172;DHT22;42052;41.634;-0.946;2022-10-16T03:54:57;25.90;52.60
56172;DHT22;42052;41.634;-0.946;2022-10-16T03:57:24;25.90;52.50
56172;DHT22;42052;41.634;-0.946;2022-10-16T03:59:50;25.90;52.50
56172;DHT22;42052;41.634;-0.946;2022-10-16T04:02:16;25.90;52.50
56172;DHT22;42052;41.634;-0.946;2022-10-16T04:04:42;25.90;52.60
56172;DHT22;42052;41.634;-0.946;2022-10-16T04:07:08;25.90;52.60
56172;DHT22;42052;41.634;-0.946;2022-10-16T04:09:34;25.90;52.60
56172;DHT22;42052;41.634;-0.946;2022-10-16T04:11:59;25.90;52.50
56172;DHT22;42052;41.634;-0.946;2022-10-16T04:14:25;25.90;53.30
56172;DHT22;42052;41.634;-0.946;2022-10-16T04:16:51;25.90;52.60
56172;DHT22;42052;41.634;-0.946;2022-10-16T04:19:17;25.90;52.50
56172;DHT22;42052;41.634;-0.946;2022-10-16T04:21:43;25.90;52.50
56172;DHT22;42052;41.634;-0.946;2022-10-16T04:24:08;25.90;52.70
56172;DHT22;42052;41.634;-0.946;2022-10-16T04:26:36;25.90;52.60
56172;DHT22;42052;41.634;-0.946;2022-10-16T04:29:02;25.90;52.60
56172;DHT22;42052;41.634;-0.946;2022-10-16T04:31:28;25.90;52.80
56172;DHT22;42052;41.634;-0.946;2022-10-16T04:33:53;25.90;52.70
56172;DHT22;42052;41.634;-0.946;2022-10-16T04:36:19;25.90;52.70
56172;DHT22;42052;41.634;-0.946;2022-10-16T04:38:45;25.80;52.70
56172;DHT22;42052;41.634;-0.946;2022-10-16T04:41:11;25.90;52.70
56172;DHT22;42052;41.634;-0.946;2022-10-16T04:43:37;25.90;52.70
56172;DHT22;42052;41.634;-0.946;2022-10-16T04:46:03;25.90;52.80
56172;DHT22;42052;41.634;-0.946;2022-10-16T04:48:30;25.90;52.80
56172;DHT22;42052;41.634;-0.946;2022-10-16T04:50:56;25.90;52.60
56172;DHT22;42052;41.634;-0.946;2022-10-16T04:53:22;25.90;52.70
56172;DHT22;42052;41.634;-0.946;2022-10-16T04:55:49;25.90;52.70
56172;DHT22;42052;41.634;-0.946;2022-10-16T04:58:15;25.90;52.70
56172;DHT22;42052;41.634;-0.946;2022-10-16T05:00:41;25.90;52.60
56172;DHT22;42052;41.634;-0.946;2022-10-16T05:03:07;25.80;52.60
56172;DHT22;42052;41.634;-0.946;2022-10-16T05:05:35;25.80;52.60
56172;DHT22;42052;41.634;-0.946;2022-10-16T05:08:01;25.90;53.30
56172;DHT22;42052;41.634;-0.946;2022-10-16T05:10:27;25.90;52.70
56172;DHT22;42052;41.634;-0.946;2022-10-16T05:12:53;25.90;52.60
56172;DHT22;42052;41.634;-0.946;2022-10-16T05:15:19;25.80;52.50
56172;DHT22;42052;41.634;-0.946;2022-10-16T05:17:45;25.90;52.50
56172;DHT22;42052;41.634;-0.946;2022-10-16T05:20:12;25.80;52.50
56172;DHT22;42052;41.634;-0.946;2022-10-16T05:22:38;25.80;52.50
56172;DHT22;42052;41.634;-0.946;2022-10-16T05:25:04;25.90;52.60
56172;DHT22;42052;41.634;-0.946;2022-10-16T05:27:30;25.80;52.50
56172;DHT22;42052;41.634;-0.946;2022-10-16T05:29:56;25.80;52.50
56172;DHT22;42052;41.634;-0.946;2022-10-16T05:32:22;25.80;52.50
56172;DHT22;42052;41.634;-0.946;2022-10-16T05:34:48;25.80;52.50
56172;DHT22;42052;41.634;-0.946;2022-10-16T05:37:13;25.80;52.50
56172;DHT22;42052;41.634;-0.946;2022-10-16T05:39:40;25.80;52.50
56172;DHT22;42052;41.634;-0.946;2022-10-16T05:42:06;25.90;52.50
56172;DHT22;42052;41.634;-0.946;2022-10-16T05:44:32;25.80;52.50
56172;DHT22;42052;41.634;-0.946;2022-10-16T05:46:58;25.80;52.50
56172;DHT22;42052;41.634;-0.946;2022-10-16T05:49:24;25.90;52.50
56172;DHT22;42052;41.634;-0.946;2022-10-16T05:51:50;25.80;52.50
56172;DHT22;42052;41.634;-0.946;2022-10-16T05:54:16;25.80;52.50
56172;DHT22;42052;41.634;-0.946;2022-10-16T05:56:42;25.80;52.50
56172;DHT22;42052;41.634;-0.946;2022-10-16T05:59:08;25.80;52.50
56172;DHT22;42052;41.634;-0.946;2022-10-16T06:01:34;25.80;52.50
56172;DHT22;42052;41.634;-0.946;2022-10-16T06:04:01;25.80;52.50
56172;DHT22;42052;41.634;-0.946;2022-10-16T06:06:28;25.80;52.50
56172;DHT22;42052;41.634;-0.946;2022-10-16T06:08:56;25.80;52.50
56172;DHT22;42052;41.634;-0.946;2022-10-16T06:11:24;25.80;52.50
56172;DHT22;42052;41.634;-0.946;2022-10-16T06:13:53;25.80;52.50
56172;DHT22;42052;41.634;-0.946;2022-10-16T06:16:20;25.80;52.50
56172;DHT22;42052;41.634;-0.946;2022-10-16T06:18:46;25.80;52.50
56172;DHT22;42052;41.634;-0.946;2022-10-16T06:21:18;25.80;52.50
56172;DHT22;42052;41.634;-0.946;2022-10-16T06:23:45;25.80;52.50
56172;DHT22;42052;41.634;-0.946;2022-10-16T06:26:16;25.80;52.50
56172;DHT22;42052;41.634;-0.946;2022-10-16T06:28:43;25.80;52.50
56172;DHT22;42052;41.634;-0.946;2022-10-16T06:31:11;25.80;52.50
56172;DHT22;42052;41.634;-0.946;2022-10-16T06:33:38;25.80;52.50
56172;DHT22;42052;41.634;-0.946;2022-10-16T06:38:35;25.80;52.50
56172;DHT22;42052;41.634;-0.946;2022-10-16T06:41:01;25.80;52.50
56172;DHT22;42052;41.634;-0.946;2022-10-16T06:43:29;25.80;52.50
56172;DHT22;42052;41.634;-0.946;2022-10-16T06:45:59;25.80;52.40
56172;DHT22;42052;41.634;-0.946;2022-10-16T06:48:26;25.80;52.40
56172;DHT22;42052;41.634;-0.946;2022-10-16T06:51:00;25.80;52.40
56172;DHT22;42052;41.634;-0.946;2022-10-16T06:53:28;25.80;52.40
56172;DHT22;42052;41.634;-0.946;2022-10-16T06:55:55;25.80;52.40
56172;DHT22;42052;41.634;-0.946;2022-10-16T06:58:21;25.80;52.30
56172;DHT22;42052;41.634;-0.946;2022-10-16T07:00:47;25.80;52.40
56172;DHT22;42052;41.634;-0.946;2022-10-16T07:03:13;25.80;52.40
56172;DHT22;42052;41.634;-0.946;2022-10-16T07:05:43;25.80;52.40
56172;DHT22;42052;41.634;-0.946;2022-10-16T07:08:09;25.80;52.40
56172;DHT22;42052;41.634;-0.946;2022-10-16T07:10:35;25.80;52.30
56172;DHT22;42052;41.634;-0.946;2022-10-16T07:13:02;25.80;52.30
56172;DHT22;42052;41.634;-0.946;2022-10-16T07:15:28;25.70;52.30
56172;DHT22;42052;41.634;-0.946;2022-10-16T07:17:54;25.70;52.30
56172;DHT22;42052;41.634;-0.946;2022-10-16T07:20:20;25.80;52.40
56172;DHT22;42052;41.634;-0.946;2022-10-16T07:22:46;25.80;52.40
56172;DHT22;42052;41.634;-0.946;2022-10-16T07:25:12;25.80;53.10
56172;DHT22;42052;41.634;-0.946;2022-10-16T07:27:38;25.80;52.50
56172;DHT22;42052;41.634;-0.946;2022-10-16T07:30:05;25.80;52.50
56172;DHT22;42052;41.634;-0.946;2022-10-16T07:32:31;25.80;52.30
56172;DHT22;42052;41.634;-0.946;2022-10-16T07:34:57;25.80;52.20
56172;DHT22;42052;41.634;-0.946;2022-10-16T07:37:23;25.80;52.00
56172;DHT22;42052;41.634;-0.946;2022-10-16T07:39:49;25.80;51.90
56172;DHT22;42052;41.634;-0.946;2022-10-16T07:42:15;25.80;51.80
56172;DHT22;42052;41.634;-0.946;2022-10-16T07:44:41;25.70;51.70
56172;DHT22;42052;41.634;-0.946;2022-10-16T07:47:07;25.70;51.70
56172;DHT22;42052;41.634;-0.946;2022-10-16T07:49:33;25.70;51.70
56172;DHT22;42052;41.634;-0.946;2022-10-16T07:51:59;25.60;51.80
56172;DHT22;42052;41.634;-0.946;2022-10-16T07:54:25;25.60;51.90
56172;DHT22;42052;41.634;-0.946;2022-10-16T07:56:51;25.60;51.90
56172;DHT22;42052;41.634;-0.946;2022-10-16T07:59:17;25.60;52.00
56172;DHT22;42052;41.634;-0.946;2022-10-16T08:01:43;25.60;52.10
56172;DHT22;42052;41.634;-0.946;2022-10-16T08:04:09;25.60;52.20
56172;DHT22;42052;41.634;-0.946;2022-10-16T08:06:39;25.60;52.30
56172;DHT22;42052;41.634;-0.946;2022-10-16T08:09:07;25.60;52.40
56172;DHT22;42052;41.634;-0.946;2022-10-16T08:11:33;25.60;52.60
56172;DHT22;42052;41.634;-0.946;2022-10-16T08:13:59;25.60;52.80
56172;DHT22;42052;41.634;-0.946;2022-10-16T08:16:25;25.60;52.90
56172;DHT22;42052;41.634;-0.946;2022-10-16T08:18:51;25.50;52.90
56172;DHT22;42052;41.634;-0.946;2022-10-16T08:21:19;25.60;53.10
56172;DHT22;42052;41.634;-0.946;2022-10-16T08:23:46;25.60;53.10
56172;DHT22;42052;41.634;-0.946;2022-10-16T08:26:12;25.60;53.10
56172;DHT22;42052;41.634;-0.946;2022-10-16T08:28:38;25.60;53.20
56172;DHT22;42052;41.634;-0.946;2022-10-16T08:31:09;25.50;53.20
56172;DHT22;42052;41.634;-0.946;2022-10-16T08:33:36;25.50;53.20
56172;DHT22;42052;41.634;-0.946;2022-10-16T08:36:03;25.50;53.50
56172;DHT22;42052;41.634;-0.946;2022-10-16T08:38:29;25.60;53.90
56172;DHT22;42052;41.634;-0.946;2022-10-16T08:41:11;25.60;53.50
56172;DHT22;42052;41.634;-0.946;2022-10-16T08:49:19;25.50;53.40
56172;DHT22;42052;41.634;-0.946;2022-10-16T08:51:45;25.60;53.50
56172;DHT22;42052;41.634;-0.946;2022-10-16T08:54:34;25.50;53.50
56172;DHT22;42052;41.634;-0.946;2022-10-16T08:57:14;25.50;53.50
56172;DHT22;42052;41.634;-0.946;2022-10-16T08:59:42;25.50;53.60
56172;DHT22;42052;41.634;-0.946;2022-10-16T09:02:31;25.50;53.90
56172;DHT22;42052;41.634;-0.946;2022-10-16T09:05:23;25.50;54.00
56172;DHT22;42052;41.634;-0.946;2022-10-16T09:08:02;25.50;54.30
56172;DHT22;42052;41.634;-0.946;2022-10-16T09:10:35;25.50;54.00
56172;DHT22;42052;41.634;-0.946;2022-10-16T09:18:17;25.50;54.80
56172;DHT22;42052;41.634;-0.946;2022-10-16T09:20:53;25.60;58.70
56172;DHT22;42052;41.634;-0.946;2022-10-16T09:23:32;25.40;57.80
56172;DHT22;42052;41.634;-0.946;2022-10-16T09:26:00;25.40;56.40
56172;DHT22;42052;41.634;-0.946;2022-10-16T09:28:27;25.30;55.70
56172;DHT22;42052;41.634;-0.946;2022-10-16T09:30:53;25.30;55.90
56172;DHT22;42052;41.634;-0.946;2022-10-16T09:33:28;25.30;55.70
56172;DHT22;42052;41.634;-0.946;2022-10-16T09:35:56;25.30;55.80
56172;DHT22;42052;41.634;-0.946;2022-10-16T09:38:28;25.30;55.60
56172;DHT22;42052;41.634;-0.946;2022-10-16T09:40:57;25.30;56.10
56172;DHT22;42052;41.634;-0.946;2022-10-16T09:46:06;25.30;55.80
56172;DHT22;42052;41.634;-0.946;2022-10-16T09:51:03;25.30;55.60
56172;DHT22;42052;41.634;-0.946;2022-10-16T09:53:43;25.40;55.60
56172;DHT22;42052;41.634;-0.946;2022-10-16T09:56:20;25.40;55.50
56172;DHT22;42052;41.634;-0.946;2022-10-16T09:58:51;25.40;55.40
56172;DHT22;42052;41.634;-0.946;2022-10-16T10:01:17;25.40;55.30
56172;DHT22;42052;41.634;-0.946;2022-10-16T10:03:44;25.40;55.30
56172;DHT22;42052;41.634;-0.946;2022-10-16T10:06:22;25.40;55.10
56172;DHT22;42052;41.634;-0.946;2022-10-16T10:11:55;25.50;55.00
56172;DHT22;42052;41.634;-0.946;2022-10-16T10:17:02;25.50;54.80
56172;DHT22;42052;41.634;-0.946;2022-10-16T10:19:28;25.50;54.70
56172;DHT22;42052;41.634;-0.946;2022-10-16T10:21:54;25.50;54.80
56172;DHT22;42052;41.634;-0.946;2022-10-16T10:24:20;25.50;54.60
56172;DHT22;42052;41.634;-0.946;2022-10-16T10:27:05;25.50;54.60
56172;DHT22;42052;41.634;-0.946;2022-10-16T10:29:39;25.50;54.60
56172;DHT22;42052;41.634;-0.946;2022-10-16T10:32:17;25.60;54.70
56172;DHT22;42052;41.634;-0.946;2022-10-16T10:35:07;25.50;54.50
56172;DHT22;42052;41.634;-0.946;2022-10-16T10:46:09;25.60;54.10
56172;DHT22;42052;41.634;-0.946;2022-10-16T10:51:50;25.60;53.80
56172;DHT22;42052;41.634;-0.946;2022-10-16T10:57:34;25.70;53.80
56172;DHT22;42052;41.634;-0.946;2022-10-16T11:00:27;25.70;53.70
56172;DHT22;42052;41.634;-0.946;2022-10-16T11:05:54;25.70;53.10
56172;DHT22;42052;41.634;-0.946;2022-10-16T11:09:00;25.80;52.90
56172;DHT22;42052;41.634;-0.946;2022-10-16T11:16:50;25.70;52.10
56172;DHT22;42052;41.634;-0.946;2022-10-16T11:19:46;25.70;52.00
56172;DHT22;42052;41.634;-0.946;2022-10-16T11:30:29;25.80;52.10
56172;DHT22;42052;41.634;-0.946;2022-10-16T11:40:54;25.80;51.40
56172;DHT22;42052;41.634;-0.946;2022-10-16T11:46:20;25.80;51.40
56172;DHT22;42052;41.634;-0.946;2022-10-16T11:49:18;25.80;51.40
56172;DHT22;42052;41.634;-0.946;2022-10-16T11:52:11;25.80;51.80
56172;DHT22;42052;41.634;-0.946;2022-10-16T11:54:52;25.80;51.40
56172;DHT22;42052;41.634;-0.946;2022-10-16T11:57:26;25.80;51.40
56172;DHT22;42052;41.634;-0.946;2022-10-16T12:00:09;25.80;51.50
56172;DHT22;42052;41.634;-0.946;2022-10-16T12:02:43;25.80;51.50
56172;DHT22;42052;41.634;-0.946;2022-10-16T12:05:19;25.80;51.50
56172;DHT22;42052;41.634;-0.946;2022-10-16T12:08:33;25.80;51.50
56172;DHT22;42052;41.634;-0.946;2022-10-16T12:10:44;25.80;51.50
56172;DHT22;42052;41.634;-0.946;2022-10-16T12:13:32;25.80;51.50
56172;DHT22;42052;41.634;-0.946;2022-10-16T12:16:20;25.90;51.50
56172;DHT22;42052;41.634;-0.946;2022-10-16T12:18:47;25.90;51.50
56172;DHT22;42052;41.634;-0.946;2022-10-16T12:21:16;25.90;51.50
56172;DHT22;42052;41.634;-0.946;2022-10-16T12:23:53;25.90;51.60
56172;DHT22;42052;41.634;-0.946;2022-10-16T12:26:38;25.90;51.60
56172;DHT22;42052;41.634;-0.946;2022-10-16T12:31:48;25.90;51.50
56172;DHT22;42052;41.634;-0.946;2022-10-16T12:36:54;25.90;51.50
56172;DHT22;42052;41.634;-0.946;2022-10-16T12:39:27;25.90;51.50
56172;DHT22;42052;41.634;-0.946;2022-10-16T12:44:52;25.90;51.40
56172;DHT22;42052;41.634;-0.946;2022-10-16T12:47:46;25.90;51.40
56172;DHT22;42052;41.634;-0.946;2022-10-16T12:50:36;25.90;51.40
56172;DHT22;42052;41.634;-0.946;2022-10-16T12:53:15;25.90;51.40
56172;DHT22;42052;41.634;-0.946;2022-10-16T12:58:51;25.90;51.30
56172;DHT22;42052;41.634;-0.946;2022-10-16T13:10:14;25.90;51.30
56172;DHT22;42052;41.634;-0.946;2022-10-16T13:15:27;25.90;51.20
56172;DHT22;42052;41.634;-0.946;2022-10-16T13:18:21;25.90;51.20
56172;DHT22;42052;41.634;-0.946;2022-10-16T13:26:48;25.90;51.10
56172;DHT22;42052;41.634;-0.946;2022-10-16T13:29:16;26.00;51.20
56172;DHT22;42052;41.634;-0.946;2022-10-16T13:31:43;26.00;51.20
56172;DHT22;42052;41.634;-0.946;2022-10-16T13:34:16;25.90;51.10
56172;DHT22;42052;41.634;-0.946;2022-10-16T13:36:49;26.00;51.30
56172;DHT22;42052;41.634;-0.946;2022-10-16T13:39:24;25.90;51.30
56172;DHT22;42052;41.634;-0.946;2022-10-16T13:44:47;25.90;51.30
56172;DHT22;42052;41.634;-0.946;2022-10-16T13:47:22;25.90;51.20
56172;DHT22;42052;41.634;-0.946;2022-10-16T13:50:15;25.90;51.50
56172;DHT22;42052;41.634;-0.946;2022-10-16T13:52:41;26.00;51.50
56172;DHT22;42052;41.634;-0.946;2022-10-16T13:55:15;26.00;51.40
56172;DHT22;42052;41.634;-0.946;2022-10-16T13:57:42;26.00;51.40
56172;DHT22;42052;41.634;-0.946;2022-10-16T14:00:24;26.00;51.50
56172;DHT22;42052;41.634;-0.946;2022-10-16T14:03:11;26.00;51.50
56172;DHT22;42052;41.634;-0.946;2022-10-16T14:05:48;26.00;51.50
56172;DHT22;42052;41.634;-0.946;2022-10-16T14:08:14;26.00;51.60
56172;DHT22;42052;41.634;-0.946;2022-10-16T14:10:41;26.00;51.60
56172;DHT22;42052;41.634;-0.946;2022-10-16T14:13:12;26.00;51.60
56172;DHT22;42052;41.634;-0.946;2022-10-16T14:15:40;26.00;51.70
56172;DHT22;42052;41.634;-0.946;2022-10-16T14:18:05;26.00;51.60
56172;DHT22;42052;41.634;-0.946;2022-10-16T14:20:33;26.00;51.60
56172;DHT22;42052;41.634;-0.946;2022-10-16T14:23:21;26.00;51.50
56172;DHT22;42052;41.634;-0.946;2022-10-16T14:25:47;26.00;51.80
56172;DHT22;42052;41.634;-0.946;2022-10-16T14:28:17;26.00;51.70
56172;DHT22;42052;41.634;-0.946;2022-10-16T14:33:22;26.00;51.70
56172;DHT22;42052;41.634;-0.946;2022-10-16T14:38:29;26.00;52.50
56172;DHT22;42052;41.634;-0.946;2022-10-16T14:40:58;26.00;51.60
56172;DHT22;42052;41.634;-0.946;2022-10-16T14:43:33;26.10;51.70
56172;DHT22;42052;41.634;-0.946;2022-10-16T14:46:01;26.00;51.70
56172;DHT22;42052;41.634;-0.946;2022-10-16T14:48:29;26.00;51.70
56172;DHT22;42052;41.634;-0.946;2022-10-16T14:50:55;26.00;51.70
56172;DHT22;42052;41.634;-0.946;2022-10-16T14:53:21;26.00;51.60
56172;DHT22;42052;41.634;-0.946;2022-10-16T14:55:47;26.00;51.60
56172;DHT22;42052;41.634;-0.946;2022-10-16T14:58:16;26.00;51.60
56172;DHT22;42052;41.634;-0.946;2022-10-16T15:00:43;26.00;51.60
56172;DHT22;42052;41.634;-0.946;2022-10-16T15:03:09;26.00;51.50
56172;DHT22;42052;41.634;-0.946;2022-10-16T15:05:35;26.10;51.60
56172;DHT22;42052;41.634;-0.946;2022-10-16T15:08:02;26.10;51.60
56172;DHT22;42052;41.634;-0.946;2022-10-16T15:10:29;26.10;51.60
56172;DHT22;42052;41.634;-0.946;2022-10-16T15:12:56;26.10;51.60
56172;DHT22;42052;41.634;-0.946;2022-10-16T15:15:37;26.10;51.60
56172;DHT22;42052;41.634;-0.946;2022-10-16T15:18:04;26.10;51.60
56172;DHT22;42052;41.634;-0.946;2022-10-16T15:20:36;26.10;51.60
56172;DHT22;42052;41.634;-0.946;2022-10-16T15:23:12;26.10;51.60
56172;DHT22;42052;41.634;-0.946;2022-10-16T15:25:42;26.10;51.50
56172;DHT22;42052;41.634;-0.946;2022-10-16T15:28:10;26.10;51.40
56172;DHT22;42052;41.634;-0.946;2022-10-16T15:30:37;26.10;51.50
56172;DHT22;42052;41.634;-0.946;2022-10-16T15:33:05;26.10;51.50
56172;DHT22;42052;41.634;-0.946;2022-10-16T15:35:35;26.10;51.50
56172;DHT22;42052;41.634;-0.946;2022-10-16T15:38:00;26.10;51.50
56172;DHT22;42052;41.634;-0.946;2022-10-16T15:40:26;26.10;51.50
56172;DHT22;42052;41.634;-0.946;2022-10-16T15:42:52;26.00;51.40
56172;DHT22;42052;41.634;-0.946;2022-10-16T15:45:18;26.10;51.50
56172;DHT22;42052;41.634;-0.946;2022-10-16T15:47:45;26.10;51.50
56172;DHT22;42052;41.634;-0.946;2022-10-16T15:50:13;26.10;51.50
56172;DHT22;42052;41.634;-0.946;2022-10-16T15:52:39;26.10;51.50
56172;DHT22;42052;41.634;-0.946;2022-10-16T15:55:10;26.10;51.50
56172;DHT22;42052;41.634;-0.946;2022-10-16T15:57:36;26.10;51.50
56172;DHT22;42052;41.634;-0.946;2022-10-16T16:00:15;26.10;51.50
56172;DHT22;42052;41.634;-0.946;2022-10-16T16:02:43;26.10;51.50
56172;DHT22;42052;41.634;-0.946;2022-10-16T16:05:10;26.10;51.30
56172;DHT22;42052;41.634;-0.946;2022-10-16T16:07:38;26.10;51.50
56172;DHT22;42052;41.634;-0.946;2022-10-16T16:10:07;26.10;51.50
56172;DHT22;42052;41.634;-0.946;2022-10-16T16:12:33;26.10;51.40
56172;DHT22;42052;41.634;-0.946;2022-10-16T16:15:00;26.10;51.40
56172;DHT22;42052;41.634;-0.946;2022-10-16T16:17:27;26.10;51.40
56172;DHT22;42052;41.634;-0.946;2022-10-16T16:19:53;26.10;51.40
56172;DHT22;42052;41.634;-0.946;2022-10-16T16:22:18;26.10;51.40
56172;DHT22;42052;41.634;-0.946;2022-10-16T16:24:44;26.10;51.30
56172;DHT22;42052;41.634;-0.946;2022-10-16T16:27:10;26.10;51.40
56172;DHT22;42052;41.634;-0.946;2022-10-16T16:29:36;26.10;51.40
56172;DHT22;42052;41.634;-0.946;2022-10-16T16:32:02;26.10;51.40
56172;DHT22;42052;41.634;-0.946;2022-10-16T16:34:29;26.10;51.30
56172;DHT22;42052;41.634;-0.946;2022-10-16T16:36:55;26.10;51.30
56172;DHT22;42052;41.634;-0.946;2022-10-16T16:39:22;26.10;51.40
56172;DHT22;42052;41.634;-0.946;2022-10-16T16:41:49;26.10;51.30
56172;DHT22;42052;41.634;-0.946;2022-10-16T16:44:16;26.10;51.30
56172;DHT22;42052;41.634;-0.946;2022-10-16T16:46:43;26.10;51.20
56172;DHT22;42052;41.634;-0.946;2022-10-16T16:49:11;26.10;51.20
56172;DHT22;42052;41.634;-0.946;2022-10-16T16:51:38;26.10;51.20
56172;DHT22;42052;41.634;-0.946;2022-10-16T16:54:05;26.10;51.30
56172;DHT22;42052;41.634;-0.946;2022-10-16T16:56:32;26.10;51.30
56172;DHT22;42052;41.634;-0.946;2022-10-16T16:58:58;26.10;51.20
56172;DHT22;42052;41.634;-0.946;2022-10-16T17:01:26;26.10;51.20
56172;DHT22;42052;41.634;-0.946;2022-10-16T17:03:53;26.10;51.20
56172;DHT22;42052;41.634;-0.946;2022-10-16T17:06:22;26.10;51.20
56172;DHT22;42052;41.634;-0.946;2022-10-16T17:08:49;26.10;51.30
56172;DHT22;42052;41.634;-0.946;2022-10-16T17:11:21;26.10;51.20
56172;DHT22;42052;41.634;-0.946;2022-10-16T17:13:48;26.10;51.50
56172;DHT22;42052;41.634;-0.946;2022-10-16T17:16:15;26.10;51.20
56172;DHT22;42052;41.634;-0.946;2022-10-16T17:18:41;26.10;51.20
56172;DHT22;42052;41.634;-0.946;2022-10-16T17:21:08;26.10;51.20
56172;DHT22;42052;41.634;-0.946;2022-10-16T17:23:35;26.10;51.20
56172;DHT22;42052;41.634;-0.946;2022-10-16T17:26:12;26.10;51.20
56172;DHT22;42052;41.634;-0.946;2022-10-16T17:28:39;26.10;51.20